sensor_id;sensor_type;location;lat;lon;timestamp;pressure;altitude;pressure_sealevel;temperature
48894;BMP280;34710;35.798;139.446;2023-04-16T00:02:04;98478.79;;;20.25
48894;BMP280;34710;35.798;139.446;2023-04-16T00:04:29;98479.61;;;20.54
48894;BMP280;34710;35.798;139.446;2023-04-16T00:06:55;98488.06;;;20.82
48894;BMP280;34710;35.798;139.446;2023-04-16T00:09:20;98483.69;;;21.93
48894;BMP280;34710;35.798;139.446;2023-04-16T00:11:45;98487.14;;;22.36
48894;BMP280;34710;35.798;139.446;2023-04-16T00:14:10;98492.94;;;22.40
48894;BMP280;34710;35.798;139.446;2023-04-16T00:16:35;98502.07;;;22.37
48894;BMP280;34710;35.798;139.446;2023-04-16T00:19:00;98500.07;;;22.78
48894;BMP280;34710;35.798;139.446;2023-04-16T00:21:25;98495.92;;;22.55
48894;BMP280;34710;35.798;139.446;2023-04-16T00:23:50;98500.22;;;23.11
48894;BMP280;34710;35.798;139.446;2023-04-16T00:26:15;98494.53;;;23.46
48894;BMP280;34710;35.798;139.446;2023-04-16T00:28:40;98493.81;;;22.62
48894;BMP280;34710;35.798;139.446;2023-04-16T00:31:06;98498.08;;;22.76
48894;BMP280;34710;35.798;139.446;2023-04-16T00:33:31;98498.99;;;23.50
48894;BMP280;34710;35.798;139.446;2023-04-16T00:35:56;98494.83;;;23.43
48894;BMP280;34710;35.798;139.446;2023-04-16T00:38:21;98502.30;;;22.82
48894;BMP280;34710;35.798;139.446;2023-04-16T00:40:46;98507.60;;;23.02
48894;BMP280;34710;35.798;139.446;2023-04-16T00:43:11;98496.51;;;22.79
48894;BMP280;34710;35.798;139.446;2023-04-16T00:45:36;98492.90;;;21.81
48894;BMP280;34710;35.798;139.446;2023-04-16T00:48:01;98493.67;;;22.40
48894;BMP280;34710;35.798;139.446;2023-04-16T00:50:27;98496.84;;;22.75
48894;BMP280;34710;35.798;139.446;2023-04-16T00:52:52;98496.03;;;22.14
48894;BMP280;34710;35.798;139.446;2023-04-16T00:55:16;98493.86;;;22.37
48894;BMP280;34710;35.798;139.446;2023-04-16T00:57:42;98505.39;;;22.47
48894;BMP280;34710;35.798;139.446;2023-04-16T01:00:07;98513.89;;;23.18
48894;BMP280;34710;35.798;139.446;2023-04-16T01:02:33;98516.99;;;23.80
48894;BMP280;34710;35.798;139.446;2023-04-16T01:04:57;98511.52;;;23.38
48894;BMP280;34710;35.798;139.446;2023-04-16T01:07:22;98516.54;;;24.12
48894;BMP280;34710;35.798;139.446;2023-04-16T01:09:47;98523.07;;;23.33
48894;BMP280;34710;35.798;139.446;2023-04-16T01:12:13;98524.50;;;23.94
48894;BMP280;34710;35.798;139.446;2023-04-16T01:14:38;98525.33;;;24.96
48894;BMP280;34710;35.798;139.446;2023-04-16T01:17:03;98531.30;;;23.24
48894;BMP280;34710;35.798;139.446;2023-04-16T01:19:27;98527.76;;;24.00
48894;BMP280;34710;35.798;139.446;2023-04-16T01:21:53;98530.87;;;23.69
48894;BMP280;34710;35.798;139.446;2023-04-16T01:24:18;98532.12;;;24.78
48894;BMP280;34710;35.798;139.446;2023-04-16T01:26:43;98537.49;;;24.39
48894;BMP280;34710;35.798;139.446;2023-04-16T01:29:08;98535.52;;;23.05
48894;BMP280;34710;35.798;139.446;2023-04-16T01:31:34;98522.67;;;23.58
48894;BMP280;34710;35.798;139.446;2023-04-16T01:33:58;98510.85;;;25.57
48894;BMP280;34710;35.798;139.446;2023-04-16T01:36:23;98514.99;;;24.91
48894;BMP280;34710;35.798;139.446;2023-04-16T01:38:48;98525.85;;;25.56
48894;BMP280;34710;35.798;139.446;2023-04-16T01:41:13;98524.08;;;26.90
48894;BMP280;34710;35.798;139.446;2023-04-16T01:43:38;98525.19;;;27.07
48894;BMP280;34710;35.798;139.446;2023-04-16T01:46:11;98532.50;;;25.50
48894;BMP280;34710;35.798;139.446;2023-04-16T01:48:29;98524.80;;;25.04
48894;BMP280;34710;35.798;139.446;2023-04-16T01:50:54;98521.94;;;25.98
48894;BMP280;34710;35.798;139.446;2023-04-16T01:53:19;98522.62;;;26.33
48894;BMP280;34710;35.798;139.446;2023-04-16T01:55:44;98519.93;;;26.57
48894;BMP280;34710;35.798;139.446;2023-04-16T01:58:09;98514.61;;;26.80
48894;BMP280;34710;35.798;139.446;2023-04-16T02:00:34;98513.59;;;27.18
48894;BMP280;34710;35.798;139.446;2023-04-16T02:02:59;98515.28;;;25.89
48894;BMP280;34710;35.798;139.446;2023-04-16T02:05:24;98516.90;;;23.67
48894;BMP280;34710;35.798;139.446;2023-04-16T02:07:49;98515.59;;;24.18
48894;BMP280;34710;35.798;139.446;2023-04-16T02:10:14;98516.73;;;25.78
48894;BMP280;34710;35.798;139.446;2023-04-16T02:12:39;98513.85;;;26.08
48894;BMP280;34710;35.798;139.446;2023-04-16T02:15:05;98504.76;;;26.03
48894;BMP280;34710;35.798;139.446;2023-04-16T02:17:29;98499.54;;;27.09
48894;BMP280;34710;35.798;139.446;2023-04-16T02:19:54;98498.43;;;27.45
48894;BMP280;34710;35.798;139.446;2023-04-16T02:22:20;98501.15;;;27.97
48894;BMP280;34710;35.798;139.446;2023-04-16T02:24:44;98494.64;;;27.19
48894;BMP280;34710;35.798;139.446;2023-04-16T02:27:11;98481.43;;;27.53
48894;BMP280;34710;35.798;139.446;2023-04-16T02:29:35;98471.85;;;25.59
48894;BMP280;34710;35.798;139.446;2023-04-16T02:32:00;98469.63;;;26.44
48894;BMP280;34710;35.798;139.446;2023-04-16T02:34:25;98463.86;;;25.93
48894;BMP280;34710;35.798;139.446;2023-04-16T02:36:50;98458.69;;;25.55
48894;BMP280;34710;35.798;139.446;2023-04-16T02:39:15;98464.14;;;25.63
48894;BMP280;34710;35.798;139.446;2023-04-16T02:41:41;98468.15;;;25.97
48894;BMP280;34710;35.798;139.446;2023-04-16T02:44:06;98466.38;;;26.83
48894;BMP280;34710;35.798;139.446;2023-04-16T02:46:30;98459.11;;;27.75
48894;BMP280;34710;35.798;139.446;2023-04-16T02:48:55;98454.64;;;28.44
48894;BMP280;34710;35.798;139.446;2023-04-16T02:51:20;98451.32;;;27.68
48894;BMP280;34710;35.798;139.446;2023-04-16T02:53:45;98451.15;;;28.55
48894;BMP280;34710;35.798;139.446;2023-04-16T02:56:11;98455.53;;;27.97
48894;BMP280;34710;35.798;139.446;2023-04-16T02:58:36;98451.20;;;28.59
48894;BMP280;34710;35.798;139.446;2023-04-16T03:01:01;98453.84;;;26.97
48894;BMP280;34710;35.798;139.446;2023-04-16T03:03:26;98454.59;;;25.54
48894;BMP280;34710;35.798;139.446;2023-04-16T03:05:51;98452.02;;;27.61
48894;BMP280;34710;35.798;139.446;2023-04-16T03:08:16;98449.21;;;29.08
48894;BMP280;34710;35.798;139.446;2023-04-16T03:10:41;98441.18;;;28.71
48894;BMP280;34710;35.798;139.446;2023-04-16T03:13:07;98436.95;;;29.93
48894;BMP280;34710;35.798;139.446;2023-04-16T03:15:31;98433.14;;;30.46
48894;BMP280;34710;35.798;139.446;2023-04-16T03:17:57;98433.24;;;29.85
48894;BMP280;34710;35.798;139.446;2023-04-16T03:20:22;98437.54;;;30.06
48894;BMP280;34710;35.798;139.446;2023-04-16T03:22:47;98436.47;;;30.57
48894;BMP280;34710;35.798;139.446;2023-04-16T03:25:12;98440.37;;;28.90
48894;BMP280;34710;35.798;139.446;2023-04-16T03:27:37;98445.30;;;27.45
48894;BMP280;34710;35.798;139.446;2023-04-16T03:30:02;98445.81;;;26.53
48894;BMP280;34710;35.798;139.446;2023-04-16T03:32:27;98449.37;;;29.34
48894;BMP280;34710;35.798;139.446;2023-04-16T03:34:52;98448.22;;;30.10
48894;BMP280;34710;35.798;139.446;2023-04-16T03:37:17;98446.69;;;29.01
48894;BMP280;34710;35.798;139.446;2023-04-16T03:39:42;98450.61;;;30.05
48894;BMP280;34710;35.798;139.446;2023-04-16T03:42:07;98451.07;;;29.78
48894;BMP280;34710;35.798;139.446;2023-04-16T03:44:32;98453.10;;;30.78
48894;BMP280;34710;35.798;139.446;2023-04-16T03:46:57;98448.16;;;31.28
48894;BMP280;34710;35.798;139.446;2023-04-16T03:49:22;98435.31;;;31.04
48894;BMP280;34710;35.798;139.446;2023-04-16T03:51:47;98426.98;;;30.80
48894;BMP280;34710;35.798;139.446;2023-04-16T03:54:12;98425.81;;;29.74
48894;BMP280;34710;35.798;139.446;2023-04-16T03:56:38;98420.84;;;30.56
48894;BMP280;34710;35.798;139.446;2023-04-16T03:59:02;98421.22;;;28.53
48894;BMP280;34710;35.798;139.446;2023-04-16T04:01:27;98428.95;;;27.04
48894;BMP280;34710;35.798;139.446;2023-04-16T04:03:53;98434.58;;;27.43
48894;BMP280;34710;35.798;139.446;2023-04-16T04:06:17;98429.32;;;29.20
48894;BMP280;34710;35.798;139.446;2023-04-16T04:08:43;98437.83;;;27.24
48894;BMP280;34710;35.798;139.446;2023-04-16T04:11:08;98431.42;;;27.79
48894;BMP280;34710;35.798;139.446;2023-04-16T04:13:32;98430.82;;;27.50
48894;BMP280;34710;35.798;139.446;2023-04-16T04:15:58;98425.37;;;27.91
48894;BMP280;34710;35.798;139.446;2023-04-16T04:18:23;98422.37;;;27.15
48894;BMP280;34710;35.798;139.446;2023-04-16T04:20:48;98426.68;;;24.71
48894;BMP280;34710;35.798;139.446;2023-04-16T04:23:13;98433.33;;;26.10
48894;BMP280;34710;35.798;139.446;2023-04-16T04:25:38;98426.94;;;26.03
48894;BMP280;34710;35.798;139.446;2023-04-16T04:28:03;98428.88;;;24.92
48894;BMP280;34710;35.798;139.446;2023-04-16T04:30:29;98424.58;;;25.45
48894;BMP280;34710;35.798;139.446;2023-04-16T04:32:53;98423.70;;;26.74
48894;BMP280;34710;35.798;139.446;2023-04-16T04:35:19;98421.41;;;24.82
48894;BMP280;34710;35.798;139.446;2023-04-16T04:37:44;98410.45;;;25.41
48894;BMP280;34710;35.798;139.446;2023-04-16T04:40:09;98399.66;;;25.28
48894;BMP280;34710;35.798;139.446;2023-04-16T04:42:34;98401.17;;;27.33
48894;BMP280;34710;35.798;139.446;2023-04-16T04:44:59;98406.77;;;25.70
48894;BMP280;34710;35.798;139.446;2023-04-16T04:47:24;98423.46;;;26.87
48894;BMP280;34710;35.798;139.446;2023-04-16T04:49:49;98433.82;;;27.18
48894;BMP280;34710;35.798;139.446;2023-04-16T04:52:14;98433.55;;;26.18
48894;BMP280;34710;35.798;139.446;2023-04-16T04:54:39;98434.94;;;27.15
48894;BMP280;34710;35.798;139.446;2023-04-16T04:57:05;98440.82;;;28.12
48894;BMP280;34710;35.798;139.446;2023-04-16T04:59:29;98441.47;;;27.17
48894;BMP280;34710;35.798;139.446;2023-04-16T05:01:54;98440.50;;;28.39
48894;BMP280;34710;35.798;139.446;2023-04-16T05:04:20;98440.36;;;28.03
48894;BMP280;34710;35.798;139.446;2023-04-16T05:06:45;98428.64;;;27.48
48894;BMP280;34710;35.798;139.446;2023-04-16T05:09:10;98419.47;;;27.84
48894;BMP280;34710;35.798;139.446;2023-04-16T05:11:35;98429.28;;;27.34
48894;BMP280;34710;35.798;139.446;2023-04-16T05:14:00;98438.55;;;27.48
48894;BMP280;34710;35.798;139.446;2023-04-16T05:16:25;98442.98;;;26.32
48894;BMP280;34710;35.798;139.446;2023-04-16T05:18:50;98466.73;;;27.08
48894;BMP280;34710;35.798;139.446;2023-04-16T05:21:15;98470.63;;;26.28
48894;BMP280;34710;35.798;139.446;2023-04-16T05:23:40;98462.89;;;26.22
48894;BMP280;34710;35.798;139.446;2023-04-16T05:26:05;98449.02;;;26.77
48894;BMP280;34710;35.798;139.446;2023-04-16T05:28:31;98449.33;;;26.97
48894;BMP280;34710;35.798;139.446;2023-04-16T05:30:56;98445.49;;;26.63
48894;BMP280;34710;35.798;139.446;2023-04-16T05:33:20;98449.82;;;25.38
48894;BMP280;34710;35.798;139.446;2023-04-16T05:35:46;98449.74;;;27.44
48894;BMP280;34710;35.798;139.446;2023-04-16T05:38:11;98442.04;;;28.01
48894;BMP280;34710;35.798;139.446;2023-04-16T05:40:36;98450.53;;;28.42
48894;BMP280;34710;35.798;139.446;2023-04-16T05:43:01;98460.62;;;28.21
48894;BMP280;34710;35.798;139.446;2023-04-16T05:45:26;98463.54;;;28.69
48894;BMP280;34710;35.798;139.446;2023-04-16T05:47:51;98461.35;;;28.37
48894;BMP280;34710;35.798;139.446;2023-04-16T05:50:16;98455.56;;;27.48
48894;BMP280;34710;35.798;139.446;2023-04-16T05:52:41;98454.02;;;27.33
48894;BMP280;34710;35.798;139.446;2023-04-16T05:55:07;98459.92;;;27.23
48894;BMP280;34710;35.798;139.446;2023-04-16T05:57:32;98461.23;;;27.36
48894;BMP280;34710;35.798;139.446;2023-04-16T05:59:57;98455.02;;;27.16
48894;BMP280;34710;35.798;139.446;2023-04-16T06:02:22;98453.94;;;27.21
48894;BMP280;34710;35.798;139.446;2023-04-16T06:04:47;98454.04;;;26.77
48894;BMP280;34710;35.798;139.446;2023-04-16T06:07:12;98463.15;;;26.66
48894;BMP280;34710;35.798;139.446;2023-04-16T06:09:37;98464.98;;;26.04
48894;BMP280;34710;35.798;139.446;2023-04-16T06:12:02;98473.80;;;25.64
48894;BMP280;34710;35.798;139.446;2023-04-16T06:14:27;98470.40;;;24.64
48894;BMP280;34710;35.798;139.446;2023-04-16T06:16:52;98465.26;;;24.52
48894;BMP280;34710;35.798;139.446;2023-04-16T06:19:17;98461.04;;;23.33
48894;BMP280;34710;35.798;139.446;2023-04-16T06:21:42;98471.96;;;24.52
48894;BMP280;34710;35.798;139.446;2023-04-16T06:24:07;98483.98;;;25.08
48894;BMP280;34710;35.798;139.446;2023-04-16T06:26:33;98495.01;;;24.95
48894;BMP280;34710;35.798;139.446;2023-04-16T06:28:58;98490.79;;;24.92
48894;BMP280;34710;35.798;139.446;2023-04-16T06:31:23;98491.45;;;24.72
48894;BMP280;34710;35.798;139.446;2023-04-16T06:33:48;98500.32;;;25.38
48894;BMP280;34710;35.798;139.446;2023-04-16T06:36:13;98494.43;;;25.07
48894;BMP280;34710;35.798;139.446;2023-04-16T06:38:38;98488.06;;;25.93
48894;BMP280;34710;35.798;139.446;2023-04-16T06:41:04;98480.32;;;25.28
48894;BMP280;34710;35.798;139.446;2023-04-16T06:43:28;98477.23;;;25.38
48894;BMP280;34710;35.798;139.446;2023-04-16T06:45:54;98488.03;;;25.61
48894;BMP280;34710;35.798;139.446;2023-04-16T06:48:19;98494.91;;;25.41
48894;BMP280;34710;35.798;139.446;2023-04-16T06:50:44;98504.50;;;25.21
48894;BMP280;34710;35.798;139.446;2023-04-16T06:53:09;98514.97;;;25.54
48894;BMP280;34710;35.798;139.446;2023-04-16T06:55:34;98513.63;;;25.77
48894;BMP280;34710;35.798;139.446;2023-04-16T06:58:00;98517.94;;;25.68
48894;BMP280;34710;35.798;139.446;2023-04-16T07:00:24;98519.59;;;25.23
48894;BMP280;34710;35.798;139.446;2023-04-16T07:02:49;98528.54;;;25.48
48894;BMP280;34710;35.798;139.446;2023-04-16T07:05:14;98530.99;;;25.25
48894;BMP280;34710;35.798;139.446;2023-04-16T07:07:40;98537.75;;;25.07
48894;BMP280;34710;35.798;139.446;2023-04-16T07:10:05;98533.31;;;25.42
48894;BMP280;34710;35.798;139.446;2023-04-16T07:12:30;98535.47;;;25.61
48894;BMP280;34710;35.798;139.446;2023-04-16T07:14:55;98536.18;;;25.48
48894;BMP280;34710;35.798;139.446;2023-04-16T07:17:20;98537.36;;;25.46
48894;BMP280;34710;35.798;139.446;2023-04-16T07:19:45;98538.36;;;25.43
48894;BMP280;34710;35.798;139.446;2023-04-16T07:22:11;98542.50;;;25.66
48894;BMP280;34710;35.798;139.446;2023-04-16T07:24:36;98547.18;;;25.30
48894;BMP280;34710;35.798;139.446;2023-04-16T07:27:01;98539.56;;;25.01
48894;BMP280;34710;35.798;139.446;2023-04-16T07:29:27;98561.37;;;24.72
48894;BMP280;34710;35.798;139.446;2023-04-16T07:31:51;98574.63;;;25.26
48894;BMP280;34710;35.798;139.446;2023-04-16T07:34:16;98586.89;;;25.24
48894;BMP280;34710;35.798;139.446;2023-04-16T07:36:41;98594.98;;;24.40
48894;BMP280;34710;35.798;139.446;2023-04-16T07:39:08;98594.43;;;24.97
48894;BMP280;34710;35.798;139.446;2023-04-16T07:41:32;98613.07;;;24.57
48894;BMP280;34710;35.798;139.446;2023-04-16T07:43:57;98609.31;;;23.20
48894;BMP280;34710;35.798;139.446;2023-04-16T07:46:22;98595.14;;;22.97
48894;BMP280;34710;35.798;139.446;2023-04-16T07:48:47;98608.57;;;23.59
48894;BMP280;34710;35.798;139.446;2023-04-16T07:51:12;98605.46;;;23.01
48894;BMP280;34710;35.798;139.446;2023-04-16T07:53:37;98595.54;;;24.01
48894;BMP280;34710;35.798;139.446;2023-04-16T07:56:02;98600.36;;;24.38
48894;BMP280;34710;35.798;139.446;2023-04-16T07:58:27;98615.68;;;24.77
48894;BMP280;34710;35.798;139.446;2023-04-16T08:00:52;98632.85;;;24.77
48894;BMP280;34710;35.798;139.446;2023-04-16T08:03:17;98631.74;;;25.33
48894;BMP280;34710;35.798;139.446;2023-04-16T08:05:43;98627.92;;;24.90
48894;BMP280;34710;35.798;139.446;2023-04-16T08:08:08;98621.66;;;25.51
48894;BMP280;34710;35.798;139.446;2023-04-16T08:10:34;98632.98;;;25.47
48894;BMP280;34710;35.798;139.446;2023-04-16T08:13:00;98635.09;;;25.77
48894;BMP280;34710;35.798;139.446;2023-04-16T08:15:23;98629.75;;;25.58
48894;BMP280;34710;35.798;139.446;2023-04-16T08:17:48;98629.26;;;25.49
48894;BMP280;34710;35.798;139.446;2023-04-16T08:20:13;98629.85;;;25.57
48894;BMP280;34710;35.798;139.446;2023-04-16T08:22:39;98649.00;;;25.42
48894;BMP280;34710;35.798;139.446;2023-04-16T08:25:04;98658.57;;;25.51
48894;BMP280;34710;35.798;139.446;2023-04-16T08:27:29;98665.28;;;24.90
48894;BMP280;34710;35.798;139.446;2023-04-16T08:29:54;98669.72;;;25.25
48894;BMP280;34710;35.798;139.446;2023-04-16T08:32:19;98671.90;;;24.20
48894;BMP280;34710;35.798;139.446;2023-04-16T08:34:44;98677.04;;;23.94
48894;BMP280;34710;35.798;139.446;2023-04-16T08:37:09;98677.30;;;23.83
48894;BMP280;34710;35.798;139.446;2023-04-16T08:39:35;98684.71;;;23.09
48894;BMP280;34710;35.798;139.446;2023-04-16T08:42:04;98695.87;;;23.52
48894;BMP280;34710;35.798;139.446;2023-04-16T08:44:26;98701.64;;;23.48
48894;BMP280;34710;35.798;139.446;2023-04-16T08:46:52;98703.99;;;23.51
48894;BMP280;34710;35.798;139.446;2023-04-16T08:49:16;98705.01;;;23.04
48894;BMP280;34710;35.798;139.446;2023-04-16T08:51:43;98704.23;;;22.79
48894;BMP280;34710;35.798;139.446;2023-04-16T08:54:10;98707.50;;;22.47
48894;BMP280;34710;35.798;139.446;2023-04-16T08:56:32;98713.77;;;22.41
48894;BMP280;34710;35.798;139.446;2023-04-16T08:58:56;98720.29;;;21.96
48894;BMP280;34710;35.798;139.446;2023-04-16T09:01:21;98725.94;;;22.06
48894;BMP280;34710;35.798;139.446;2023-04-16T09:03:47;98733.85;;;21.89
48894;BMP280;34710;35.798;139.446;2023-04-16T09:06:11;98738.59;;;21.57
48894;BMP280;34710;35.798;139.446;2023-04-16T09:08:36;98743.13;;;20.47
48894;BMP280;34710;35.798;139.446;2023-04-16T09:11:02;98744.89;;;20.63
48894;BMP280;34710;35.798;139.446;2023-04-16T09:13:27;98743.82;;;19.75
48894;BMP280;34710;35.798;139.446;2023-04-16T09:15:53;98738.27;;;19.64
48894;BMP280;34710;35.798;139.446;2023-04-16T09:18:17;98734.16;;;19.19
48894;BMP280;34710;35.798;139.446;2023-04-16T09:20:42;98741.28;;;19.64
48894;BMP280;34710;35.798;139.446;2023-04-16T09:23:08;98742.55;;;19.30
48894;BMP280;34710;35.798;139.446;2023-04-16T09:25:34;98748.80;;;19.50
48894;BMP280;34710;35.798;139.446;2023-04-16T09:27:58;98746.51;;;19.00
48894;BMP280;34710;35.798;139.446;2023-04-16T09:30:25;98752.33;;;19.07
48894;BMP280;34710;35.798;139.446;2023-04-16T09:32:49;98762.25;;;18.88
48894;BMP280;34710;35.798;139.446;2023-04-16T09:35:15;98766.76;;;18.46
48894;BMP280;34710;35.798;139.446;2023-04-16T09:37:40;98773.87;;;18.40
48894;BMP280;34710;35.798;139.446;2023-04-16T09:40:05;98786.66;;;18.41
48894;BMP280;34710;35.798;139.446;2023-04-16T09:42:31;98800.50;;;18.24
48894;BMP280;34710;35.798;139.446;2023-04-16T09:44:55;98814.87;;;18.09
48894;BMP280;34710;35.798;139.446;2023-04-16T09:47:20;98821.65;;;18.57
48894;BMP280;34710;35.798;139.446;2023-04-16T09:49:45;98827.86;;;18.62
48894;BMP280;34710;35.798;139.446;2023-04-16T09:52:14;98830.95;;;18.59
48894;BMP280;34710;35.798;139.446;2023-04-16T09:54:35;98837.97;;;18.11
48894;BMP280;34710;35.798;139.446;2023-04-16T09:57:01;98842.98;;;18.12
48894;BMP280;34710;35.798;139.446;2023-04-16T09:59:28;98846.87;;;17.81
48894;BMP280;34710;35.798;139.446;2023-04-16T10:01:52;98850.26;;;17.68
48894;BMP280;34710;35.798;139.446;2023-04-16T10:04:16;98865.03;;;18.08
48894;BMP280;34710;35.798;139.446;2023-04-16T10:06:41;98869.57;;;18.52
48894;BMP280;34710;35.798;139.446;2023-04-16T10:09:07;98881.55;;;18.29
48894;BMP280;34710;35.798;139.446;2023-04-16T10:11:34;98880.72;;;18.89
48894;BMP280;34710;35.798;139.446;2023-04-16T10:13:57;98885.53;;;18.48
48894;BMP280;34710;35.798;139.446;2023-04-16T10:16:23;98885.12;;;18.16
48894;BMP280;34710;35.798;139.446;2023-04-16T10:18:47;98890.64;;;18.58
48894;BMP280;34710;35.798;139.446;2023-04-16T10:21:13;98891.89;;;18.34
48894;BMP280;34710;35.798;139.446;2023-04-16T10:23:40;98899.13;;;18.08
48894;BMP280;34710;35.798;139.446;2023-04-16T10:26:03;98906.58;;;18.48
48894;BMP280;34710;35.798;139.446;2023-04-16T10:28:29;98912.73;;;18.23
48894;BMP280;34710;35.798;139.446;2023-04-16T10:30:55;98921.20;;;17.75
48894;BMP280;34710;35.798;139.446;2023-04-16T10:33:21;98921.16;;;17.67
48894;BMP280;34710;35.798;139.446;2023-04-16T10:35:45;98928.31;;;17.17
48894;BMP280;34710;35.798;139.446;2023-04-16T10:38:21;98928.58;;;18.07
48894;BMP280;34710;35.798;139.446;2023-04-16T10:40:35;98937.35;;;17.87
48894;BMP280;34710;35.798;139.446;2023-04-16T10:43:01;98953.38;;;17.44
48894;BMP280;34710;35.798;139.446;2023-04-16T10:45:32;98958.29;;;17.71
48894;BMP280;34710;35.798;139.446;2023-04-16T10:47:51;98957.64;;;17.72
48894;BMP280;34710;35.798;139.446;2023-04-16T10:50:16;98957.07;;;17.97
48894;BMP280;34710;35.798;139.446;2023-04-16T10:52:41;98964.20;;;17.63
48894;BMP280;34710;35.798;139.446;2023-04-16T10:55:08;98971.36;;;17.83
48894;BMP280;34710;35.798;139.446;2023-04-16T10:57:32;98976.80;;;17.74
48894;BMP280;34710;35.798;139.446;2023-04-16T10:59:59;98980.95;;;18.11
48894;BMP280;34710;35.798;139.446;2023-04-16T11:02:28;98990.29;;;18.10
48894;BMP280;34710;35.798;139.446;2023-04-16T11:04:49;98996.68;;;17.95
48894;BMP280;34710;35.798;139.446;2023-04-16T11:07:18;99006.08;;;17.71
48894;BMP280;34710;35.798;139.446;2023-04-16T11:09:52;99006.00;;;18.32
48894;BMP280;34710;35.798;139.446;2023-04-16T11:12:08;99014.21;;;17.82
48894;BMP280;34710;35.798;139.446;2023-04-16T11:14:30;99013.07;;;18.49
48894;BMP280;34710;35.798;139.446;2023-04-16T11:16:55;99021.23;;;17.95
48894;BMP280;34710;35.798;139.446;2023-04-16T11:19:20;99030.35;;;17.26
48894;BMP280;34710;35.798;139.446;2023-04-16T11:21:47;99037.50;;;16.95
48894;BMP280;34710;35.798;139.446;2023-04-16T11:24:13;99039.42;;;17.43
48894;BMP280;34710;35.798;139.446;2023-04-16T11:26:38;99044.12;;;17.05
48894;BMP280;34710;35.798;139.446;2023-04-16T11:31:27;99051.92;;;17.32
48894;BMP280;34710;35.798;139.446;2023-04-16T11:33:55;99057.43;;;16.93
48894;BMP280;34710;35.798;139.446;2023-04-16T11:36:18;99059.94;;;17.54
48894;BMP280;34710;35.798;139.446;2023-04-16T11:38:44;99067.41;;;16.93
48894;BMP280;34710;35.798;139.446;2023-04-16T11:41:09;99078.69;;;17.19
48894;BMP280;34710;35.798;139.446;2023-04-16T11:43:34;99084.69;;;17.15
48894;BMP280;34710;35.798;139.446;2023-04-16T11:46:01;99091.38;;;17.03
48894;BMP280;34710;35.798;139.446;2023-04-16T11:48:30;99094.39;;;16.83
48894;BMP280;34710;35.798;139.446;2023-04-16T11:50:55;99099.87;;;16.97
48894;BMP280;34710;35.798;139.446;2023-04-16T11:53:16;99100.22;;;16.85
48894;BMP280;34710;35.798;139.446;2023-04-16T11:55:44;99108.84;;;17.06
48894;BMP280;34710;35.798;139.446;2023-04-16T11:58:11;99111.12;;;17.20
48894;BMP280;34710;35.798;139.446;2023-04-16T12:00:35;99115.22;;;17.02
48894;BMP280;34710;35.798;139.446;2023-04-16T12:02:57;99120.29;;;17.34
48894;BMP280;34710;35.798;139.446;2023-04-16T12:05:29;99122.86;;;17.61
48894;BMP280;34710;35.798;139.446;2023-04-16T12:07:47;99123.56;;;16.92
48894;BMP280;34710;35.798;139.446;2023-04-16T12:10:14;99130.56;;;16.67
48894;BMP280;34710;35.798;139.446;2023-04-16T12:12:37;99129.72;;;16.98
48894;BMP280;34710;35.798;139.446;2023-04-16T12:15:04;99130.66;;;17.00
48894;BMP280;34710;35.798;139.446;2023-04-16T12:17:29;99135.08;;;17.82
48894;BMP280;34710;35.798;139.446;2023-04-16T12:19:56;99133.03;;;16.96
48894;BMP280;34710;35.798;139.446;2023-04-16T12:22:27;99128.91;;;16.81
48894;BMP280;34710;35.798;139.446;2023-04-16T12:24:44;99131.82;;;17.21
48894;BMP280;34710;35.798;139.446;2023-04-16T12:27:10;99140.37;;;17.69
48894;BMP280;34710;35.798;139.446;2023-04-16T12:29:36;99141.33;;;17.63
48894;BMP280;34710;35.798;139.446;2023-04-16T12:32:01;99143.67;;;17.54
48894;BMP280;34710;35.798;139.446;2023-04-16T12:34:27;99139.23;;;17.57
48894;BMP280;34710;35.798;139.446;2023-04-16T12:37:05;99139.73;;;17.40
48894;BMP280;34710;35.798;139.446;2023-04-16T12:39:17;99136.87;;;17.43
48894;BMP280;34710;35.798;139.446;2023-04-16T12:41:44;99132.77;;;17.20
48894;BMP280;34710;35.798;139.446;2023-04-16T12:44:10;99131.64;;;17.56
48894;BMP280;34710;35.798;139.446;2023-04-16T12:46:35;99130.10;;;17.17
48894;BMP280;34710;35.798;139.446;2023-04-16T12:48:58;99130.12;;;17.25
48894;BMP280;34710;35.798;139.446;2023-04-16T12:51:24;99131.53;;;17.54
48894;BMP280;34710;35.798;139.446;2023-04-16T12:53:49;99128.81;;;17.25
48894;BMP280;34710;35.798;139.446;2023-04-16T12:56:14;99128.40;;;17.03
48894;BMP280;34710;35.798;139.446;2023-04-16T12:58:39;99121.71;;;17.00
48894;BMP280;34710;35.798;139.446;2023-04-16T13:01:04;99124.28;;;16.35
48894;BMP280;34710;35.798;139.446;2023-04-16T13:03:30;99128.76;;;16.12
48894;BMP280;34710;35.798;139.446;2023-04-16T13:05:56;99129.89;;;16.57
48894;BMP280;34710;35.798;139.446;2023-04-16T13:08:21;99132.67;;;16.61
48894;BMP280;34710;35.798;139.446;2023-04-16T13:10:46;99136.61;;;16.32
48894;BMP280;34710;35.798;139.446;2023-04-16T13:13:11;99142.95;;;16.67
48894;BMP280;34710;35.798;139.446;2023-04-16T13:15:37;99139.97;;;16.96
48894;BMP280;34710;35.798;139.446;2023-04-16T13:18:03;99146.09;;;16.76
48894;BMP280;34710;35.798;139.446;2023-04-16T13:20:29;99145.57;;;16.86
48894;BMP280;34710;35.798;139.446;2023-04-16T13:22:55;99149.28;;;16.55
48894;BMP280;34710;35.798;139.446;2023-04-16T13:25:20;99146.67;;;16.54
48894;BMP280;34710;35.798;139.446;2023-04-16T13:27:45;99145.80;;;16.16
48894;BMP280;34710;35.798;139.446;2023-04-16T13:30:12;99148.41;;;15.91
48894;BMP280;34710;35.798;139.446;2023-04-16T13:32:37;99147.33;;;15.72
48894;BMP280;34710;35.798;139.446;2023-04-16T13:35:02;99154.08;;;15.79